createdAt,value
2017-02-21T00:00:34.953Z,23.85
2017-02-21T00:01:15.438Z,23.89
2017-02-21T00:01:55.928Z,23.92
2017-02-21T00:02:36.433Z,23.9
2017-02-21T00:03:16.949Z,23.75
2017-02-21T00:03:57.436Z,23.82
2017-02-21T00:04:37.932Z,23.77
2017-02-21T00:05:18.430Z,23.79
2017-02-21T00:05:58.912Z,23.85
2017-02-21T00:06:39.404Z,23.87
2017-02-21T00:07:19.908Z,23.89
2017-02-21T00:08:00.393Z,23.9
2017-02-21T00:08:40.889Z,23.84
2017-02-21T00:09:21.380Z,23.75
2017-02-21T00:10:01.877Z,23.82
2017-02-21T00:10:42.364Z,23.79
2017-02-21T00:11:22.850Z,23.84
2017-02-21T00:12:03.345Z,23.81
2017-02-21T00:12:43.838Z,23.82
2017-02-21T00:13:24.325Z,23.79
2017-02-21T00:14:04.824Z,23.82
2017-02-21T00:14:45.306Z,23.78
2017-02-21T00:15:25.792Z,23.84
2017-02-21T00:16:06.290Z,23.79
2017-02-21T00:16:46.769Z,23.82
2017-02-21T00:17:27.268Z,23.81
2017-02-21T00:18:07.753Z,23.79
2017-02-21T00:18:48.250Z,23.81
2017-02-21T00:19:28.740Z,23.78
2017-02-21T00:20:09.229Z,23.81
2017-02-21T00:20:49.729Z,23.89
2017-02-21T00:21:30.222Z,23.85
2017-02-21T00:22:10.737Z,23.81
2017-02-21T00:22:51.227Z,23.78
2017-02-21T00:23:31.732Z,23.78
2017-02-21T00:24:12.199Z,23.74
2017-02-21T00:24:52.697Z,23.82
2017-02-21T00:25:33.184Z,23.78
2017-02-21T00:26:13.677Z,23.77
2017-02-21T00:26:54.178Z,23.78
2017-02-21T00:27:34.662Z,23.78
2017-02-21T00:28:15.158Z,23.74
2017-02-21T00:28:55.654Z,23.79
2017-02-21T00:29:36.147Z,23.75
2017-02-21T00:30:16.649Z,23.79
2017-02-21T00:30:57.148Z,23.74
2017-02-21T00:31:37.649Z,23.78
2017-02-21T00:32:18.154Z,23.75
2017-02-21T00:32:58.649Z,23.7
2017-02-21T00:33:39.143Z,23.81
2017-02-21T00:34:19.649Z,23.77
2017-02-21T00:35:00.167Z,23.78
2017-02-21T00:35:40.645Z,23.79
2017-02-21T00:36:21.141Z,23.81
2017-02-21T00:37:01.649Z,23.77
2017-02-21T00:37:42.147Z,23.79
2017-02-21T00:38:22.645Z,23.75
2017-02-21T00:39:03.140Z,23.78
2017-02-21T00:39:43.643Z,23.75
2017-02-21T00:40:24.139Z,23.77
2017-02-21T00:41:04.634Z,23.67
2017-02-21T00:41:45.137Z,23.78
2017-02-21T00:42:25.639Z,23.78
2017-02-21T00:43:06.129Z,23.71
2017-02-21T00:43:46.629Z,23.71
2017-02-21T00:44:27.123Z,23.72
2017-02-21T00:45:07.611Z,23.78
2017-02-21T00:45:48.108Z,23.72
2017-02-21T00:46:28.609Z,23.77
2017-02-21T00:47:09.098Z,23.71
2017-02-21T00:47:49.588Z,23.77
2017-02-21T00:48:30.082Z,23.74
2017-02-21T00:49:10.575Z,23.72
2017-02-21T00:49:51.082Z,23.74
2017-02-21T00:50:31.574Z,23.71
2017-02-21T00:51:12.071Z,23.81
2017-02-21T00:51:52.569Z,23.75
2017-02-21T00:52:33.055Z,23.82
2017-02-21T00:53:13.547Z,23.77
2017-02-21T00:53:54.054Z,23.74
2017-02-21T00:54:34.546Z,23.7
2017-02-21T00:55:15.046Z,23.71
2017-02-21T00:55:55.820Z,23.67
2017-02-21T00:56:36.257Z,23.74
2017-02-21T00:57:16.740Z,23.71
2017-02-21T00:57:57.215Z,23.71
2017-02-21T00:58:37.700Z,23.77
2017-02-21T00:59:18.190Z,23.72
2017-02-21T00:59:58.676Z,23.74
2017-02-21T01:00:39.171Z,23.75
2017-02-21T01:01:19.670Z,23.75
2017-02-21T01:02:00.162Z,23.77
2017-02-21T01:02:40.658Z,23.74
2017-02-21T01:03:21.147Z,23.74
2017-02-21T01:04:01.660Z,23.75
2017-02-21T01:04:42.146Z,23.75
2017-02-21T01:05:22.632Z,23.81
2017-02-21T01:06:03.127Z,23.77
2017-02-21T01:06:43.623Z,23.7
2017-02-21T01:07:24.120Z,23.72
2017-02-21T01:08:04.619Z,23.74
2017-02-21T01:08:45.100Z,23.72
2017-02-21T01:09:25.612Z,23.74
2017-02-21T01:10:06.111Z,23.79
2017-02-21T01:10:46.620Z,23.78
2017-02-21T01:11:27.116Z,23.81
2017-02-21T01:12:07.613Z,23.79
2017-02-21T01:12:48.111Z,23.74
2017-02-21T01:13:28.616Z,23.79
2017-02-21T01:14:09.112Z,23.74
2017-02-21T01:14:49.611Z,23.77
2017-02-21T01:15:30.102Z,23.71
2017-02-21T01:16:10.587Z,23.67
2017-02-21T01:16:51.068Z,23.67
2017-02-21T01:17:31.558Z,23.67
2017-02-21T01:18:12.056Z,23.66
2017-02-21T01:18:52.542Z,23.64
2017-02-21T01:19:33.029Z,23.62
2017-02-21T01:20:13.515Z,23.62
2017-02-21T01:20:54.005Z,23.64
2017-02-21T01:21:34.482Z,23.67
2017-02-21T01:22:14.992Z,23.66
2017-02-21T01:22:55.476Z,23.67
2017-02-21T01:23:35.971Z,23.64
2017-02-21T01:24:16.466Z,23.63
2017-02-21T01:24:56.949Z,23.7
2017-02-21T01:25:37.446Z,23.59
2017-02-21T01:26:17.944Z,23.67
2017-02-21T01:26:58.632Z,23.71
2017-02-21T01:27:39.264Z,23.66
2017-02-21T01:28:19.758Z,23.62
2017-02-21T01:29:00.252Z,23.67
2017-02-21T01:29:40.739Z,23.6
2017-02-21T01:30:21.252Z,23.63
2017-02-21T01:31:01.740Z,23.66
2017-02-21T01:31:42.242Z,23.6
2017-02-21T01:32:22.750Z,23.64
2017-02-21T01:33:03.249Z,23.66
2017-02-21T01:33:43.748Z,23.67
2017-02-21T01:34:24.233Z,23.6
2017-02-21T01:35:04.751Z,23.71
2017-02-21T01:35:45.245Z,23.66
2017-02-21T01:36:25.738Z,23.62
2017-02-21T01:37:06.243Z,23.6
2017-02-21T01:37:46.718Z,23.64
2017-02-21T01:38:27.210Z,23.62
2017-02-21T01:39:07.705Z,23.67
2017-02-21T01:39:48.313Z,23.63
2017-02-21T01:40:28.795Z,23.67
2017-02-21T01:41:09.291Z,23.63
2017-02-21T01:41:49.796Z,23.71
2017-02-21T01:42:30.287Z,23.64
2017-02-21T01:43:10.791Z,23.64
2017-02-21T01:43:51.310Z,23.6
2017-02-21T01:44:31.779Z,23.67
2017-02-21T01:45:12.287Z,23.67
2017-02-21T01:45:52.784Z,23.66
2017-02-21T01:46:33.279Z,23.66
2017-02-21T01:47:13.784Z,23.67
2017-02-21T01:47:54.278Z,23.71
2017-02-21T01:48:34.787Z,23.64
2017-02-21T01:49:15.275Z,23.63
2017-02-21T01:49:55.781Z,23.63
2017-02-21T01:50:36.275Z,23.7
2017-02-21T01:51:16.777Z,23.67
2017-02-21T01:51:57.269Z,23.64
2017-02-21T01:52:37.785Z,23.67
2017-02-21T01:53:18.271Z,23.72
2017-02-21T01:53:58.770Z,23.6
2017-02-21T01:54:39.278Z,23.62
2017-02-21T01:55:19.783Z,23.7
2017-02-21T01:56:00.278Z,23.63
2017-02-21T01:56:40.778Z,23.64
2017-02-21T01:57:21.271Z,23.71
2017-02-21T01:58:01.772Z,23.63
2017-02-21T01:58:42.250Z,23.74
2017-02-21T01:59:22.742Z,23.64
2017-02-21T02:00:03.230Z,23.63
2017-02-21T02:00:43.724Z,23.7
2017-02-21T02:01:24.213Z,23.62
2017-02-21T02:02:04.706Z,23.59
2017-02-21T02:02:45.193Z,23.67
2017-02-21T02:03:25.690Z,23.64
2017-02-21T02:04:06.187Z,23.6
2017-02-21T02:04:46.686Z,23.64
2017-02-21T02:05:27.190Z,23.63
2017-02-21T02:06:07.684Z,23.67
2017-02-21T02:06:48.186Z,23.63
2017-02-21T02:07:28.668Z,23.59
2017-02-21T02:08:09.152Z,23.56
2017-02-21T02:08:49.639Z,23.59
2017-02-21T02:09:30.136Z,23.59
2017-02-21T02:10:10.632Z,23.66
2017-02-21T02:10:51.115Z,23.63
2017-02-21T02:11:31.611Z,23.67
2017-02-21T02:12:12.096Z,23.6
2017-02-21T02:12:52.641Z,23.63
2017-02-21T02:13:33.111Z,23.57
2017-02-21T02:14:13.598Z,23.57
2017-02-21T02:14:54.108Z,23.57
2017-02-21T02:15:34.591Z,23.57
2017-02-21T02:16:15.079Z,23.56
2017-02-21T02:16:55.573Z,23.56
2017-02-21T02:17:36.071Z,23.67
2017-02-21T02:18:16.557Z,23.56
2017-02-21T02:18:57.075Z,23.57
2017-02-21T02:19:37.572Z,23.6
2017-02-21T02:20:18.074Z,23.62
2017-02-21T02:20:58.561Z,23.57
2017-02-21T02:21:39.065Z,23.57
2017-02-21T02:22:19.547Z,23.67
2017-02-21T02:23:00.034Z,23.62
2017-02-21T02:23:40.518Z,23.56
2017-02-21T02:24:21.004Z,23.62
2017-02-21T02:25:01.504Z,23.71
2017-02-21T02:25:41.991Z,23.6
2017-02-21T02:26:22.478Z,23.62
2017-02-21T02:27:02.967Z,23.6
2017-02-21T02:27:43.632Z,23.7
2017-02-21T02:28:24.146Z,23.67
2017-02-21T02:29:04.644Z,23.67
2017-02-21T02:29:45.135Z,23.63
2017-02-21T02:30:25.621Z,23.57
2017-02-21T02:31:06.112Z,23.7
2017-02-21T02:31:46.618Z,23.63
2017-02-21T02:32:27.095Z,23.67
2017-02-21T02:33:07.592Z,23.71
2017-02-21T02:33:48.090Z,23.64
2017-02-21T02:34:28.582Z,23.66
2017-02-21T02:35:09.088Z,23.62
2017-02-21T02:35:49.575Z,23.57
2017-02-21T02:36:30.070Z,23.66
2017-02-21T02:37:10.555Z,23.62
2017-02-21T02:37:51.056Z,23.6
2017-02-21T02:38:31.554Z,23.66
2017-02-21T02:39:12.050Z,23.67
2017-02-21T02:39:52.536Z,23.59
2017-02-21T02:40:33.032Z,23.57
2017-02-21T02:41:13.518Z,23.53
2017-02-21T02:41:54.055Z,23.57
2017-02-21T02:42:34.536Z,23.59
2017-02-21T02:43:15.031Z,23.6
2017-02-21T02:43:55.527Z,23.59
2017-02-21T02:44:36.013Z,23.56
2017-02-21T02:45:16.504Z,23.57
2017-02-21T02:45:56.989Z,23.59
2017-02-21T02:46:37.492Z,23.59
2017-02-21T02:47:17.992Z,23.59
2017-02-21T02:47:58.502Z,23.67
2017-02-21T02:48:38.992Z,23.59
2017-02-21T02:49:19.500Z,23.62
2017-02-21T02:49:59.980Z,23.63
2017-02-21T02:50:40.474Z,23.63
2017-02-21T02:51:20.971Z,23.63
2017-02-21T02:52:01.491Z,23.64
2017-02-21T02:52:41.968Z,23.6
2017-02-21T02:53:22.458Z,23.67
2017-02-21T02:54:02.943Z,23.67
2017-02-21T02:54:43.436Z,23.64
2017-02-21T02:55:23.938Z,23.62
2017-02-21T02:56:04.429Z,23.62
2017-02-21T02:56:44.941Z,23.67
2017-02-21T02:57:25.438Z,23.71
2017-02-21T02:58:06.141Z,23.62
2017-02-21T02:58:46.626Z,23.57
2017-02-21T02:59:27.134Z,23.56
2017-02-21T03:00:07.622Z,23.59
2017-02-21T03:00:48.117Z,23.55
2017-02-21T03:01:28.608Z,23.56
2017-02-21T03:02:09.105Z,23.66
2017-02-21T03:02:49.599Z,23.59
2017-02-21T03:03:30.115Z,23.53
2017-02-21T03:04:10.609Z,23.52
2017-02-21T03:04:51.104Z,23.52
2017-02-21T03:07:03.916Z,23.62
2017-02-21T03:07:44.415Z,23.59
2017-02-21T03:08:24.915Z,23.57
2017-02-21T03:09:05.424Z,23.6
2017-02-21T03:09:45.915Z,23.63
2017-02-21T03:10:26.422Z,23.7
2017-02-21T03:11:06.911Z,23.67
2017-02-21T03:11:47.411Z,23.67
2017-02-21T03:12:27.913Z,23.62
2017-02-21T03:13:08.512Z,23.57
2017-02-21T03:13:49.048Z,23.6
2017-02-21T03:14:29.533Z,23.59
2017-02-21T03:15:10.021Z,23.55
2017-02-21T03:15:50.515Z,23.59
2017-02-21T03:16:31.017Z,23.63
2017-02-21T03:17:11.514Z,23.66
2017-02-21T03:17:52.005Z,23.62
2017-02-21T03:18:32.486Z,23.62
2017-02-21T03:19:12.972Z,23.55
2017-02-21T03:19:53.487Z,23.56
2017-02-21T03:20:33.977Z,23.56
2017-02-21T03:21:14.482Z,23.56
2017-02-21T03:21:54.959Z,23.53
2017-02-21T03:22:35.448Z,23.56
2017-02-21T03:23:15.931Z,23.5
2017-02-21T03:23:56.417Z,23.56
2017-02-21T03:24:36.890Z,23.5
2017-02-21T03:25:17.381Z,23.5
2017-02-21T03:25:57.865Z,23.55
2017-02-21T03:26:38.371Z,23.53
2017-02-21T03:27:18.855Z,23.45
2017-02-21T03:27:59.364Z,23.53
2017-02-21T03:28:39.830Z,23.52
2017-02-21T03:29:20.309Z,23.56
2017-02-21T03:30:00.802Z,23.5
2017-02-21T03:30:41.301Z,23.56
2017-02-21T03:31:21.793Z,23.56
2017-02-21T03:32:02.273Z,23.52
2017-02-21T03:32:42.753Z,23.59
2017-02-21T03:33:23.237Z,23.55
2017-02-21T03:34:03.746Z,23.52
2017-02-21T03:34:44.243Z,23.53
2017-02-21T03:35:24.727Z,23.56
2017-02-21T03:36:05.215Z,23.53
2017-02-21T03:36:45.710Z,23.52
2017-02-21T03:37:26.187Z,23.48
2017-02-21T03:38:06.691Z,23.5
2017-02-21T03:38:47.176Z,23.47
2017-02-21T03:39:27.687Z,23.48
2017-02-21T03:40:08.159Z,23.52
2017-02-21T03:40:48.648Z,23.53
2017-02-21T03:41:29.155Z,23.52
2017-02-21T03:42:09.640Z,23.55
2017-02-21T03:42:50.127Z,23.47
2017-02-21T03:43:30.637Z,23.52
2017-02-21T03:44:11.126Z,23.52
2017-02-21T03:44:51.635Z,23.56
2017-02-21T03:45:32.119Z,23.53
2017-02-21T03:46:12.607Z,23.57
2017-02-21T03:46:53.092Z,23.5
2017-02-21T03:47:33.576Z,23.57
2017-02-21T03:48:14.087Z,23.52
2017-02-21T03:48:54.577Z,23.59
2017-02-21T03:49:35.069Z,23.52
2017-02-21T03:50:15.549Z,23.47
2017-02-21T03:50:56.030Z,23.55
2017-02-21T03:51:36.525Z,23.57
2017-02-21T03:52:17.009Z,23.55
2017-02-21T03:52:57.497Z,23.6
2017-02-21T03:53:37.984Z,23.55
2017-02-21T03:54:18.468Z,23.52
2017-02-21T03:54:58.958Z,23.6
2017-02-21T03:55:39.460Z,23.5
2017-02-21T03:56:19.967Z,23.56
2017-02-21T03:57:00.458Z,23.56
2017-02-21T03:57:40.968Z,23.56
2017-02-21T03:58:21.459Z,23.53
2017-02-21T03:59:01.965Z,23.59
2017-02-21T03:59:42.453Z,23.56
2017-02-21T04:00:22.937Z,23.56
2017-02-21T04:01:03.424Z,23.59
2017-02-21T04:01:43.916Z,23.59
2017-02-21T04:02:24.411Z,23.67
2017-02-21T04:03:04.913Z,23.56
2017-02-21T04:03:45.669Z,23.66
2017-02-21T04:04:26.118Z,23.57
2017-02-21T04:05:06.604Z,23.56
2017-02-21T04:05:47.115Z,23.6
2017-02-21T04:06:27.617Z,23.56
2017-02-21T04:07:08.103Z,23.56
2017-02-21T04:07:48.605Z,23.57
2017-02-21T04:08:29.103Z,23.55
2017-02-21T04:09:09.612Z,23.55
2017-02-21T04:09:50.098Z,23.56
2017-02-21T04:10:30.601Z,23.63
2017-02-21T04:11:11.109Z,23.52
2017-02-21T04:11:51.600Z,23.56
2017-02-21T04:12:32.099Z,23.57
2017-02-21T04:13:12.606Z,23.53
2017-02-21T04:13:53.089Z,23.57
2017-02-21T04:14:33.586Z,23.56
2017-02-21T04:15:14.064Z,23.57
2017-02-21T04:15:54.557Z,23.57
2017-02-21T04:16:35.052Z,23.56
2017-02-21T04:17:15.540Z,23.57
2017-02-21T04:17:56.032Z,23.57
2017-02-21T04:18:36.539Z,23.56
2017-02-21T04:19:17.025Z,23.56
2017-02-21T04:19:57.520Z,23.56
2017-02-21T04:20:38.015Z,23.6
2017-02-21T04:21:18.498Z,23.56
2017-02-21T04:21:58.988Z,23.56
2017-02-21T04:22:39.497Z,23.56
2017-02-21T04:23:19.987Z,23.56
2017-02-21T04:24:00.495Z,23.55
2017-02-21T04:24:40.989Z,23.59
2017-02-21T04:25:21.491Z,23.56
2017-02-21T04:26:01.982Z,23.53
2017-02-21T04:26:42.487Z,23.55
2017-02-21T04:27:23.122Z,23.59
2017-02-21T04:28:03.465Z,23.53
2017-02-21T04:28:43.947Z,23.57
2017-02-21T04:29:24.432Z,23.48
2017-02-21T04:30:04.944Z,23.55
2017-02-21T04:30:45.438Z,23.48
2017-02-21T04:31:25.932Z,23.57
2017-02-21T04:32:06.427Z,23.52
2017-02-21T04:32:46.926Z,23.48
2017-02-21T04:33:27.434Z,23.56
2017-02-21T04:34:07.935Z,23.45
2017-02-21T04:34:48.639Z,23.55
2017-02-21T04:35:29.129Z,23.5
2017-02-21T04:36:09.635Z,23.53
2017-02-21T04:36:50.143Z,23.5
2017-02-21T04:37:30.635Z,23.56
2017-02-21T04:38:11.135Z,23.52
2017-02-21T04:38:51.637Z,23.56
2017-02-21T04:39:32.207Z,23.56
2017-02-21T04:40:12.677Z,23.55
2017-02-21T04:40:53.203Z,23.53
2017-02-21T04:41:33.707Z,23.47
2017-02-21T04:42:14.201Z,23.55
2017-02-21T04:42:54.675Z,23.47
2017-02-21T04:43:35.177Z,23.47
2017-02-21T04:44:15.683Z,23.47
2017-02-21T04:44:56.175Z,23.55
2017-02-21T04:45:36.680Z,23.48
2017-02-21T04:46:17.175Z,23.56
2017-02-21T04:46:57.672Z,23.53
2017-02-21T04:47:38.173Z,23.57
2017-02-21T04:48:18.679Z,23.48
2017-02-21T04:48:59.172Z,23.56
2017-02-21T04:49:39.684Z,23.52
2017-02-21T04:50:20.179Z,23.52
2017-02-21T04:51:00.674Z,23.53
2017-02-21T04:51:41.154Z,23.42
2017-02-21T04:52:21.666Z,23.48
2017-02-21T04:53:02.156Z,23.55
2017-02-21T04:53:42.648Z,23.48
2017-02-21T04:54:23.116Z,23.52
2017-02-21T04:55:03.677Z,23.52
2017-02-21T04:55:44.194Z,23.52
2017-02-21T04:56:24.670Z,23.53
2017-02-21T04:57:05.153Z,23.57
2017-02-21T04:57:45.642Z,23.53
2017-02-21T04:58:26.135Z,23.53
2017-02-21T04:59:06.621Z,23.56
2017-02-21T04:59:47.112Z,23.5
2017-02-21T05:00:27.604Z,23.5
2017-02-21T05:01:08.108Z,23.53
2017-02-21T05:01:48.606Z,23.55
2017-02-21T05:02:29.086Z,23.56
2017-02-21T05:03:09.563Z,23.52
2017-02-21T05:03:50.045Z,23.5
2017-02-21T05:04:30.534Z,23.5
2017-02-21T05:05:11.011Z,23.55
2017-02-21T05:05:51.505Z,23.5
2017-02-21T05:06:31.997Z,23.55
2017-02-21T05:07:12.506Z,23.55
2017-02-21T05:07:52.999Z,23.47
2017-02-21T05:08:33.491Z,23.57
2017-02-21T05:09:14.022Z,23.52
2017-02-21T05:09:54.490Z,23.52
2017-02-21T05:10:34.976Z,23.47
2017-02-21T05:11:15.447Z,23.52
2017-02-21T05:11:55.957Z,23.56
2017-02-21T05:12:36.449Z,23.56
2017-02-21T05:13:16.935Z,23.55
2017-02-21T05:13:57.427Z,23.5
2017-02-21T05:14:37.912Z,23.5
2017-02-21T05:15:18.411Z,23.53
2017-02-21T05:15:58.891Z,23.55
2017-02-21T05:16:39.389Z,23.48
2017-02-21T05:17:19.880Z,23.53
2017-02-21T05:18:00.383Z,23.55
2017-02-21T05:18:40.869Z,23.5
2017-02-21T05:19:21.362Z,23.45
2017-02-21T05:20:01.860Z,23.55
2017-02-21T05:20:42.345Z,23.52
2017-02-21T05:21:22.840Z,23.52
2017-02-21T05:22:03.328Z,23.57
2017-02-21T05:22:43.841Z,23.45
2017-02-21T05:23:24.339Z,23.55
2017-02-21T05:24:04.824Z,23.47
2017-02-21T05:24:45.316Z,23.53
2017-02-21T05:25:25.808Z,23.5
2017-02-21T05:26:06.308Z,23.47
2017-02-21T05:26:46.796Z,23.55
2017-02-21T05:27:27.288Z,23.57
2017-02-21T05:28:07.780Z,23.5
2017-02-21T05:28:48.273Z,23.48
2017-02-21T05:29:28.768Z,23.5
2017-02-21T05:30:09.278Z,23.47
2017-02-21T05:30:49.787Z,23.57
2017-02-21T05:31:30.275Z,23.56
2017-02-21T05:32:10.779Z,23.56
2017-02-21T05:32:51.266Z,23.59
2017-02-21T05:33:31.755Z,23.52
2017-02-21T05:34:12.249Z,23.53
2017-02-21T05:34:52.751Z,23.53
2017-02-21T05:35:33.234Z,23.5
2017-02-21T05:36:13.739Z,23.6
2017-02-21T05:36:54.224Z,23.6
2017-02-21T05:37:34.726Z,23.56
2017-02-21T05:38:15.213Z,23.57
2017-02-21T05:38:55.694Z,23.45
2017-02-21T05:39:36.187Z,23.52
2017-02-21T05:40:16.677Z,23.52
2017-02-21T05:40:57.167Z,23.5
2017-02-21T05:41:37.669Z,23.56
2017-02-21T05:42:18.156Z,23.5
2017-02-21T05:42:58.643Z,23.5
2017-02-21T05:43:39.134Z,23.53
2017-02-21T05:44:19.630Z,23.59
2017-02-21T05:45:00.117Z,23.47
2017-02-21T05:45:40.609Z,23.56
2017-02-21T05:46:21.105Z,23.52
2017-02-21T05:47:01.600Z,23.52
2017-02-21T05:47:42.083Z,23.48
2017-02-21T05:48:22.578Z,23.52
2017-02-21T05:49:03.083Z,23.47
2017-02-21T05:49:43.555Z,23.56
2017-02-21T05:50:24.043Z,23.56
2017-02-21T05:51:04.529Z,23.48
2017-02-21T05:51:45.010Z,23.48
2017-02-21T05:52:25.497Z,23.47
2017-02-21T05:53:06.005Z,23.5
2017-02-21T05:53:46.503Z,23.56
2017-02-21T05:54:27.029Z,23.55
2017-02-21T05:55:07.485Z,23.53
2017-02-21T05:55:47.974Z,23.55
2017-02-21T05:56:28.471Z,23.57
2017-02-21T05:57:08.964Z,23.48
2017-02-21T05:57:49.448Z,23.47
2017-02-21T05:58:29.944Z,23.53
2017-02-21T05:59:10.451Z,23.52
2017-02-21T05:59:50.951Z,23.53
2017-02-21T06:00:31.722Z,23.55
2017-02-21T06:01:12.174Z,23.52
2017-02-21T06:01:52.661Z,23.48
2017-02-21T06:02:33.152Z,23.48
2017-02-21T06:03:13.644Z,23.53
2017-02-21T06:03:54.136Z,23.48
2017-02-21T06:04:34.647Z,23.57
2017-02-21T06:05:15.144Z,23.47
2017-02-21T06:05:55.644Z,23.56
2017-02-21T06:06:36.164Z,23.55
2017-02-21T06:07:16.643Z,23.57
2017-02-21T06:07:57.139Z,23.56
2017-02-21T06:08:37.646Z,23.55
2017-02-21T06:09:18.143Z,23.55
2017-02-21T06:09:58.635Z,23.56
2017-02-21T06:10:39.127Z,23.57
2017-02-21T06:11:19.615Z,23.53
2017-02-21T06:12:00.109Z,23.57
2017-02-21T06:12:40.613Z,23.6
2017-02-21T06:13:21.108Z,23.59
2017-02-21T06:14:01.610Z,23.57
2017-02-21T06:14:42.079Z,23.57
2017-02-21T06:15:22.553Z,23.57
2017-02-21T06:16:03.056Z,23.56
2017-02-21T06:16:43.546Z,23.57
2017-02-21T06:17:24.049Z,23.55
2017-02-21T06:18:04.550Z,23.56
2017-02-21T06:18:45.187Z,23.56
2017-02-21T06:19:25.683Z,23.55
2017-02-21T06:20:06.182Z,23.6
2017-02-21T06:20:46.680Z,23.59
2017-02-21T06:21:27.182Z,23.59
2017-02-21T06:22:07.673Z,23.55
2017-02-21T06:22:48.182Z,23.55
2017-02-21T06:23:28.677Z,23.52
2017-02-21T06:24:09.177Z,23.57
2017-02-21T06:24:49.667Z,23.59
2017-02-21T06:25:30.168Z,23.53
2017-02-21T06:26:10.665Z,23.5
2017-02-21T06:26:51.175Z,23.5
2017-02-21T06:27:31.666Z,23.55
2017-02-21T06:28:12.150Z,23.48
2017-02-21T06:28:52.647Z,23.62
2017-02-21T06:29:33.142Z,23.6
2017-02-21T06:30:13.623Z,23.57
2017-02-21T06:30:54.118Z,23.62
2017-02-21T06:31:34.793Z,23.57
2017-02-21T06:32:15.276Z,23.56
2017-02-21T06:32:55.774Z,23.56
2017-02-21T06:33:36.270Z,23.56
2017-02-21T06:34:16.767Z,23.59
2017-02-21T06:34:57.271Z,23.57
2017-02-21T06:35:37.765Z,23.57
2017-02-21T06:36:18.260Z,23.56
2017-02-21T06:36:58.766Z,23.57
2017-02-21T06:37:39.267Z,23.57
2017-02-21T06:38:19.754Z,23.56
2017-02-21T06:39:00.271Z,23.56
2017-02-21T06:39:40.727Z,23.59
2017-02-21T06:40:21.235Z,23.57
2017-02-21T06:41:01.720Z,23.53
2017-02-21T06:41:42.232Z,23.57
2017-02-21T06:42:22.715Z,23.6
2017-02-21T06:43:03.193Z,23.59
2017-02-21T06:43:43.687Z,23.56
2017-02-21T06:44:24.187Z,23.56
2017-02-21T06:45:04.680Z,23.57
2017-02-21T06:45:45.168Z,23.57
2017-02-21T06:46:25.677Z,23.55
2017-02-21T06:47:06.163Z,23.55
2017-02-21T06:47:46.644Z,23.55
2017-02-21T06:48:27.160Z,23.56
2017-02-21T06:49:07.631Z,23.56
2017-02-21T06:49:48.129Z,23.57
2017-02-21T06:50:28.611Z,23.57
2017-02-21T06:51:09.103Z,23.56
2017-02-21T06:51:49.604Z,23.56
2017-02-21T06:52:30.091Z,23.48
2017-02-21T06:53:10.583Z,23.56
2017-02-21T06:53:51.078Z,23.55
2017-02-21T06:54:31.552Z,23.55
2017-02-21T06:55:12.068Z,23.48
2017-02-21T06:55:52.569Z,23.56
2017-02-21T06:56:33.043Z,23.5
2017-02-21T06:57:13.547Z,23.48
2017-02-21T06:57:54.052Z,23.57
2017-02-21T06:58:34.547Z,23.5
2017-02-21T06:59:15.044Z,23.57
2017-02-21T06:59:55.534Z,23.59
2017-02-21T07:00:36.017Z,23.53
2017-02-21T07:01:16.508Z,23.71
2017-02-21T07:01:56.994Z,23.63
2017-02-21T07:02:37.489Z,23.66
2017-02-21T07:03:17.976Z,23.57
2017-02-21T07:03:58.463Z,23.57
2017-02-21T07:04:38.949Z,23.56
2017-02-21T07:05:19.439Z,23.56
2017-02-21T07:05:59.933Z,23.55
2017-02-21T07:06:40.419Z,23.56
2017-02-21T07:07:20.909Z,23.56
2017-02-21T07:08:01.398Z,23.56
2017-02-21T07:08:41.905Z,23.53
2017-02-21T07:09:22.395Z,23.55
2017-02-21T07:10:02.894Z,23.56
2017-02-21T07:10:43.385Z,23.56
2017-02-21T07:11:23.876Z,23.57
2017-02-21T07:12:04.392Z,23.56
2017-02-21T07:12:44.899Z,23.56
2017-02-21T07:13:25.387Z,23.55
2017-02-21T07:14:05.879Z,23.56
2017-02-21T07:14:46.373Z,23.56
2017-02-21T07:15:26.872Z,23.56
2017-02-21T07:16:07.383Z,23.57
2017-02-21T07:16:47.871Z,23.57
2017-02-21T07:17:29.341Z,23.57
2017-02-21T07:18:09.853Z,23.55
2017-02-21T07:18:50.343Z,23.57
2017-02-21T07:19:30.842Z,23.59
2017-02-21T07:20:11.336Z,23.57
2017-02-21T07:20:51.826Z,23.55
2017-02-21T07:21:32.315Z,23.6
2017-02-21T07:22:12.808Z,23.64
2017-02-21T07:22:53.313Z,23.6
2017-02-21T07:23:33.792Z,23.53
2017-02-21T07:24:14.273Z,23.56
2017-02-21T07:24:54.775Z,23.56
2017-02-21T07:25:35.263Z,23.53
2017-02-21T07:26:15.752Z,23.56
2017-02-21T07:26:56.224Z,23.6
2017-02-21T07:27:36.709Z,23.56
2017-02-21T07:28:17.221Z,23.59
2017-02-21T07:28:57.716Z,23.56
2017-02-21T07:29:38.224Z,23.67
2017-02-21T07:30:18.715Z,23.56
2017-02-21T07:30:59.205Z,23.55
2017-02-21T07:31:39.705Z,23.67
2017-02-21T07:32:20.187Z,23.63
2017-02-21T07:33:00.698Z,23.71
2017-02-21T07:33:41.181Z,23.64
2017-02-21T07:34:21.675Z,23.7
2017-02-21T07:35:02.173Z,23.62
2017-02-21T07:35:42.664Z,23.67
2017-02-21T07:36:23.155Z,23.64
2017-02-21T07:37:03.645Z,23.62
2017-02-21T07:37:44.152Z,23.62
2017-02-21T07:38:24.643Z,23.62
2017-02-21T07:39:05.124Z,23.67
2017-02-21T07:39:45.611Z,23.72
2017-02-21T07:40:26.630Z,23.74
2017-02-21T07:41:07.130Z,23.74
2017-02-21T07:41:47.622Z,23.71
2017-02-21T07:42:28.117Z,23.64
2017-02-21T07:43:08.623Z,23.67
2017-02-21T07:43:49.131Z,23.66
2017-02-21T07:44:29.627Z,23.67
2017-02-21T07:45:10.150Z,23.74
2017-02-21T07:45:50.614Z,23.7
2017-02-21T07:46:31.103Z,23.75
2017-02-21T07:47:11.599Z,23.72
2017-02-21T07:47:52.092Z,23.67
2017-02-21T07:48:32.577Z,23.71
2017-02-21T07:49:13.079Z,23.72
2017-02-21T07:49:53.571Z,23.74
2017-02-21T07:50:34.115Z,23.77
2017-02-21T07:51:14.612Z,23.74
2017-02-21T07:51:55.095Z,23.74
2017-02-21T07:52:35.582Z,23.77
2017-02-21T07:53:16.069Z,23.85
2017-02-21T07:53:56.565Z,23.84
2017-02-21T07:54:37.053Z,23.93
2017-02-21T07:55:17.547Z,23.92
2017-02-21T07:55:58.058Z,24.02
2017-02-21T07:56:38.546Z,23.94
2017-02-21T07:57:19.039Z,24.08
2017-02-21T07:57:59.534Z,23.99
2017-02-21T07:58:40.019Z,24
2017-02-21T07:59:20.497Z,23.99
2017-02-21T08:00:00.999Z,23.99
2017-02-21T08:00:41.496Z,24.04
2017-02-21T08:01:21.983Z,24.07
2017-02-21T08:02:02.468Z,24.15
2017-02-21T08:02:42.946Z,24.17
2017-02-21T08:03:23.465Z,24.14
2017-02-21T08:04:04.681Z,24.14
2017-02-21T08:04:44.459Z,24.19
2017-02-21T08:05:24.945Z,24.3
2017-02-21T08:06:05.434Z,24.32
2017-02-21T08:06:45.924Z,24.34
2017-02-21T08:07:26.680Z,24.44
2017-02-21T08:08:07.109Z,24.48
2017-02-21T08:08:47.627Z,24.51
2017-02-21T08:09:28.105Z,24.45
2017-02-21T08:10:08.595Z,24.55
2017-02-21T08:10:49.078Z,24.42
2017-02-21T08:11:29.571Z,24.55
2017-02-21T08:12:10.081Z,24.52
2017-02-21T08:12:50.576Z,24.55
2017-02-21T08:13:31.074Z,24.49
2017-02-21T08:14:11.566Z,24.48
2017-02-21T08:14:52.069Z,24.49
2017-02-21T08:15:32.541Z,24.51
2017-02-21T08:16:13.045Z,24.49
2017-02-21T08:16:53.546Z,24.46
2017-02-21T08:17:34.042Z,24.46
2017-02-21T08:18:14.549Z,24.58
2017-02-21T08:18:55.043Z,24.59
2017-02-21T08:19:35.542Z,24.63
2017-02-21T08:20:17.255Z,24.64
2017-02-21T08:20:56.721Z,24.67
2017-02-21T08:21:37.216Z,24.71
2017-02-21T08:22:17.718Z,24.82
2017-02-21T08:22:58.864Z,24.8
2017-02-21T08:23:39.354Z,24.82
2017-02-21T08:24:19.856Z,24.82
2017-02-21T08:25:00.350Z,24.85
2017-02-21T08:25:40.843Z,24.78
2017-02-21T08:26:21.331Z,24.83
2017-02-21T08:27:01.816Z,24.82
2017-02-21T08:27:42.324Z,24.82
2017-02-21T08:28:22.809Z,24.85
2017-02-21T08:29:03.303Z,24.85
2017-02-21T08:29:43.799Z,24.82
2017-02-21T08:30:24.296Z,24.85
2017-02-21T08:31:04.800Z,24.82
2017-02-21T08:31:45.300Z,24.78
2017-02-21T08:32:25.799Z,24.82
2017-02-21T08:33:06.287Z,24.93
2017-02-21T08:33:46.801Z,24.94
2017-02-21T08:34:27.296Z,24.9
2017-02-21T08:35:07.796Z,24.94
2017-02-21T08:35:48.292Z,25.01
2017-02-21T08:36:29.477Z,25.09
2017-02-21T08:37:09.962Z,25.14
2017-02-21T08:37:50.463Z,25.19
2017-02-21T08:38:30.955Z,25.2
2017-02-21T08:39:11.447Z,25.2
2017-02-21T08:39:51.946Z,25.3
2017-02-21T08:40:32.443Z,25.24
2017-02-21T08:41:12.931Z,25.32
2017-02-21T08:41:53.416Z,25.33
2017-02-21T08:42:33.908Z,25.45
2017-02-21T08:43:14.384Z,25.39
2017-02-21T08:43:55.561Z,25.42
2017-02-21T08:44:36.053Z,25.37
2017-02-21T08:45:16.548Z,25.38